createdAt,value
2022-12-29T00:00:35.881Z,99180.41
2022-12-29T00:03:02.992Z,99178.16
2022-12-29T00:05:29.891Z,99219.22
2022-12-29T00:07:56.858Z,99206.78
2022-12-29T00:10:23.663Z,99203.66
2022-12-29T00:12:50.518Z,99217.25
2022-12-29T00:15:17.396Z,99187.41
2022-12-29T00:17:44.623Z,99183.00
2022-12-29T00:20:11.435Z,99222.91
2022-12-29T00:22:38.344Z,99206.25
2022-12-29T00:25:06.687Z,99201.72
2022-12-29T00:27:34.232Z,99221.28
2022-12-29T00:30:01.084Z,99215.53
2022-12-29T00:32:28.119Z,99201.50
2022-12-29T00:34:55.176Z,99201.59
2022-12-29T00:37:22.341Z,99213.81
2022-12-29T00:39:50.157Z,99195.88
2022-12-29T00:42:17.005Z,99217.81
2022-12-29T00:44:44.247Z,99224.41
2022-12-29T00:47:11.155Z,99216.16
2022-12-29T00:49:38.001Z,99231.94
2022-12-29T00:52:08.090Z,99223.53
2022-12-29T00:54:37.608Z,99236.41
2022-12-29T00:57:06.480Z,99217.34
2022-12-29T00:59:36.886Z,99229.16
2022-12-29T01:02:04.115Z,99240.28
2022-12-29T01:04:49.580Z,99228.28
2022-12-29T01:07:17.069Z,99239.66
2022-12-29T01:09:45.441Z,99252.72
2022-12-29T01:12:13.268Z,99248.41
2022-12-29T01:14:41.778Z,99247.09
2022-12-29T01:17:08.685Z,99256.19
2022-12-29T01:19:54.276Z,99255.97
2022-12-29T01:22:22.244Z,99247.28
2022-12-29T01:24:50.341Z,99235.91
2022-12-29T01:27:17.290Z,99246.25
2022-12-29T01:29:45.019Z,99253.78
2022-12-29T01:32:11.961Z,99270.16
2022-12-29T01:34:39.209Z,99243.69
2022-12-29T01:37:06.170Z,99272.13
2022-12-29T01:39:34.410Z,99273.88
2022-12-29T01:42:01.564Z,99261.69
2022-12-29T01:44:50.154Z,99275.34
2022-12-29T01:47:40.539Z,99277.00
2022-12-29T01:50:15.598Z,99270.53
2022-12-29T01:52:51.499Z,99293.50
2022-12-29T01:55:19.112Z,99279.56
2022-12-29T01:57:52.708Z,99261.28
2022-12-29T02:00:20.382Z,99293.91
2022-12-29T02:02:53.313Z,99312.19
2022-12-29T02:05:48.634Z,99282.44
2022-12-29T02:08:16.102Z,99295.31
2022-12-29T02:10:45.456Z,99296.69
2022-12-29T02:13:12.378Z,99285.59
2022-12-29T02:16:09.650Z,99292.91
2022-12-29T02:18:41.624Z,99312.59
2022-12-29T02:21:26.673Z,99312.88
2022-12-29T02:24:12.944Z,99305.69
2022-12-29T02:26:45.897Z,99313.75
2022-12-29T02:29:43.874Z,99309.47
2022-12-29T02:32:38.488Z,99308.91
2022-12-29T02:35:08.570Z,99321.34
2022-12-29T02:37:42.049Z,99310.28
2022-12-29T02:40:20.823Z,99328.00
2022-12-29T02:43:11.893Z,99307.59
2022-12-29T02:45:52.229Z,99320.94
2022-12-29T02:48:44.236Z,99316.56
2022-12-29T02:51:22.277Z,99328.88
2022-12-29T02:53:49.912Z,99333.88
2022-12-29T02:56:18.898Z,99343.16
2022-12-29T02:58:47.009Z,99339.56
2022-12-29T03:01:32.838Z,99329.44
2022-12-29T03:03:59.908Z,99347.31
2022-12-29T03:06:41.360Z,99349.78
2022-12-29T03:09:35.524Z,99349.72
2022-12-29T03:12:15.669Z,99357.34
2022-12-29T03:15:04.599Z,99352.31
2022-12-29T03:17:52.899Z,99357.69
2022-12-29T03:20:25.898Z,99353.91
2022-12-29T03:23:01.261Z,99365.97
2022-12-29T03:25:49.551Z,99358.53
2022-12-29T03:28:28.173Z,99371.63
2022-12-29T03:30:56.766Z,99377.56
2022-12-29T03:33:44.858Z,99383.22
2022-12-29T03:36:19.047Z,99386.91
2022-12-29T03:38:58.020Z,99359.47
2022-12-29T03:41:31.712Z,99388.63
2022-12-29T03:44:01.292Z,99359.97
2022-12-29T03:46:28.271Z,99398.19
2022-12-29T03:48:55.099Z,99393.38
2022-12-29T03:51:21.957Z,99382.91
2022-12-29T03:53:49.398Z,99395.81
2022-12-29T03:56:16.447Z,99392.91
2022-12-29T03:58:45.620Z,99382.47
2022-12-29T04:01:18.110Z,99364.59
2022-12-29T04:03:45.705Z,99402.59
2022-12-29T04:06:12.916Z,99396.47
2022-12-29T04:09:00.146Z,99391.97
2022-12-29T04:11:32.847Z,99417.88
2022-12-29T04:14:01.519Z,99393.09
2022-12-29T04:16:30.618Z,99427.81
2022-12-29T04:18:57.610Z,99417.88
2022-12-29T04:21:24.485Z,99414.66
2022-12-29T04:23:51.570Z,99412.66
2022-12-29T04:26:18.515Z,99416.75
2022-12-29T04:28:53.888Z,99421.53
2022-12-29T04:31:39.281Z,99433.13
2022-12-29T04:34:07.489Z,99428.34
2022-12-29T04:36:35.047Z,99409.31
2022-12-29T04:39:02.126Z,99394.81
2022-12-29T04:41:29.338Z,99430.69
2022-12-29T04:43:56.255Z,99421.66
2022-12-29T04:46:23.232Z,99450.34
2022-12-29T04:48:56.488Z,99433.84
2022-12-29T04:51:30.081Z,99431.88
2022-12-29T04:53:57.177Z,99441.63
2022-12-29T04:56:25.632Z,99439.28
2022-12-29T04:58:52.605Z,99431.63
2022-12-29T05:01:39.940Z,99446.25
2022-12-29T05:04:07.175Z,99427.59
2022-12-29T05:06:34.026Z,99425.50
2022-12-29T05:09:02.491Z,99440.19
2022-12-29T05:11:47.853Z,99458.66
2022-12-29T05:14:14.994Z,99449.47
2022-12-29T05:16:42.920Z,99458.66
2022-12-29T05:19:10.611Z,99465.25
2022-12-29T05:21:38.198Z,99442.50
2022-12-29T05:24:05.670Z,99480.03
2022-12-29T05:26:32.595Z,99442.69
2022-12-29T05:29:06.291Z,99473.59
2022-12-29T05:31:33.648Z,99461.72
2022-12-29T05:34:01.194Z,99484.41
2022-12-29T05:36:47.580Z,99482.38
2022-12-29T05:39:34.181Z,99505.56
2022-12-29T05:42:04.006Z,99465.91
2022-12-29T05:44:56.834Z,99474.59
2022-12-29T05:47:32.414Z,99467.16
2022-12-29T05:50:23.591Z,99506.59
2022-12-29T05:53:09.106Z,99493.34
2022-12-29T05:55:39.191Z,99507.06
2022-12-29T05:58:08.027Z,99505.66
2022-12-29T06:00:34.974Z,99502.16
2022-12-29T06:03:02.443Z,99519.94
2022-12-29T06:05:29.420Z,99529.56
2022-12-29T06:08:16.579Z,99536.25
2022-12-29T06:10:43.516Z,99517.69
2022-12-29T06:13:29.149Z,99504.28
2022-12-29T06:15:57.575Z,99522.88
2022-12-29T06:18:26.499Z,99517.69
2022-12-29T06:20:53.725Z,99522.53
2022-12-29T06:23:20.677Z,99523.91
2022-12-29T06:25:50.758Z,99541.41
2022-12-29T06:28:17.747Z,99524.00
2022-12-29T06:30:47.766Z,99534.22
2022-12-29T06:33:15.043Z,99537.97
2022-12-29T06:35:43.819Z,99542.06
2022-12-29T06:38:10.941Z,99539.38
2022-12-29T06:40:38.001Z,99536.09
2022-12-29T06:43:04.922Z,99536.31
2022-12-29T06:45:57.815Z,99528.50
2022-12-29T06:48:24.874Z,99544.31
2022-12-29T06:51:10.263Z,99508.91
2022-12-29T06:53:37.324Z,99574.75
2022-12-29T06:56:04.480Z,99538.19
2022-12-29T06:58:49.888Z,99545.81
2022-12-29T07:01:16.904Z,99532.75
2022-12-29T07:03:44.249Z,99545.41
2022-12-29T07:06:11.467Z,99544.56
2022-12-29T07:08:38.343Z,99543.00
2022-12-29T07:11:06.045Z,99548.34
2022-12-29T07:13:33.034Z,99541.81
2022-12-29T07:15:59.888Z,99535.66
2022-12-29T07:18:26.708Z,99545.19
2022-12-29T07:20:53.633Z,99540.69
2022-12-29T07:23:38.913Z,99542.53
2022-12-29T07:26:08.910Z,99528.81
2022-12-29T07:28:36.834Z,99536.34
2022-12-29T07:31:25.038Z,99531.09
2022-12-29T07:33:52.052Z,99540.81
2022-12-29T07:36:18.877Z,99549.56
2022-12-29T07:38:45.767Z,99528.94
2022-12-29T07:41:12.758Z,99537.53
2022-12-29T07:43:39.783Z,99541.19
2022-12-29T07:46:55.075Z,99554.38
2022-12-29T07:49:12.151Z,99545.63
2022-12-29T07:51:39.089Z,99540.78
2022-12-29T07:54:06.069Z,99550.97
2022-12-29T07:56:32.986Z,99535.38
2022-12-29T07:58:59.980Z,99510.13
2022-12-29T08:01:26.944Z,99549.56
2022-12-29T08:03:57.277Z,99546.50
2022-12-29T08:06:24.656Z,99543.69
2022-12-29T08:08:51.549Z,99541.50
2022-12-29T08:11:18.505Z,99528.97
2022-12-29T08:13:45.389Z,99520.69
2022-12-29T08:16:12.413Z,99533.09
2022-12-29T08:18:39.449Z,99533.19
2022-12-29T08:21:07.025Z,99521.59
2022-12-29T08:23:33.943Z,99512.59
2022-12-29T08:26:03.526Z,99536.09
2022-12-29T08:28:33.411Z,99537.75
2022-12-29T08:31:02.273Z,99545.16
2022-12-29T08:33:30.200Z,99547.72
2022-12-29T08:36:05.935Z,99540.44
2022-12-29T08:38:33.357Z,99527.16
2022-12-29T08:41:01.088Z,99511.56
2022-12-29T08:43:28.888Z,99528.06
2022-12-29T08:45:55.818Z,99533.41
2022-12-29T08:48:22.841Z,99519.97
2022-12-29T08:50:50.334Z,99507.09
2022-12-29T08:53:18.012Z,99529.59
2022-12-29T08:55:57.997Z,99522.84
2022-12-29T08:58:29.726Z,99527.63
2022-12-29T09:00:58.307Z,99539.00
2022-12-29T09:04:03.829Z,99519.81
2022-12-29T09:06:13.557Z,99532.94
2022-12-29T09:08:40.591Z,99549.53
2022-12-29T09:11:14.453Z,99511.34
2022-12-29T09:13:41.595Z,99532.31
2022-12-29T09:16:08.847Z,99547.72
2022-12-29T09:18:35.831Z,99523.47
2022-12-29T09:21:21.328Z,99539.28
2022-12-29T09:23:49.642Z,99526.59
2022-12-29T09:26:16.679Z,99543.88
2022-12-29T09:28:43.854Z,99538.97
2022-12-29T09:31:11.629Z,99543.88
2022-12-29T09:33:38.619Z,99547.22
2022-12-29T09:36:06.049Z,99566.22
2022-12-29T09:38:33.251Z,99537.13
2022-12-29T09:41:15.128Z,99542.41
2022-12-29T09:44:00.416Z,99538.84
2022-12-29T09:46:42.704Z,99535.44
2022-12-29T09:49:17.035Z,99543.25
2022-12-29T09:51:47.873Z,99538.69
2022-12-29T09:54:48.228Z,99543.03
2022-12-29T09:57:24.416Z,99541.06
2022-12-29T09:59:55.546Z,99555.81
2022-12-29T10:02:41.742Z,99549.88
2022-12-29T10:05:49.312Z,99546.47
2022-12-29T10:08:34.506Z,99514.78
2022-12-29T10:11:13.518Z,99558.41
2022-12-29T10:14:04.861Z,99549.47
2022-12-29T10:16:48.988Z,99533.84
2022-12-29T10:19:33.204Z,99538.22
2022-12-29T10:22:19.607Z,99538.44
2022-12-29T10:24:49.654Z,99528.31
2022-12-29T10:27:17.952Z,99541.06
2022-12-29T10:29:54.283Z,99533.19
2022-12-29T10:32:33.281Z,99539.88
2022-12-29T10:35:12.601Z,99521.63
2022-12-29T10:37:57.740Z,99543.50
2022-12-29T10:40:32.902Z,99522.44
2022-12-29T10:43:01.904Z,99526.56
2022-12-29T10:45:32.027Z,99533.78
2022-12-29T10:48:10.112Z,99528.09
2022-12-29T10:50:38.429Z,99521.78
2022-12-29T10:53:07.182Z,99517.78
2022-12-29T10:55:37.827Z,99520.84
2022-12-29T10:58:08.259Z,99525.72
2022-12-29T11:00:35.111Z,99529.63
2022-12-29T11:03:47.287Z,99525.06
2022-12-29T11:06:26.792Z,99537.97
2022-12-29T11:09:14.895Z,99525.06
2022-12-29T11:11:41.932Z,99524.09
2022-12-29T11:14:19.303Z,99511.41
2022-12-29T11:16:59.030Z,99536.34
2022-12-29T11:19:34.952Z,99549.34
2022-12-29T11:22:15.009Z,99538.84
2022-12-29T11:24:47.507Z,99537.41
2022-12-29T11:27:23.964Z,99533.28
2022-12-29T11:29:52.565Z,99542.19
2022-12-29T11:32:29.342Z,99530.06
2022-12-29T11:35:00.203Z,99531.34
2022-12-29T11:37:37.799Z,99534.16
2022-12-29T11:40:20.378Z,99529.38
2022-12-29T11:42:56.469Z,99543.81
2022-12-29T11:45:27.880Z,99543.59
2022-12-29T11:48:17.204Z,99537.72
2022-12-29T11:50:52.873Z,99565.56
2022-12-29T11:53:40.820Z,99557.00
2022-12-29T11:56:13.742Z,99557.75
2022-12-29T11:58:41.018Z,99552.53
2022-12-29T12:01:22.155Z,99558.47
2022-12-29T12:04:09.885Z,99568.72
2022-12-29T12:06:54.536Z,99563.94
2022-12-29T12:09:30.145Z,99543.19
2022-12-29T12:12:00.246Z,99572.75
2022-12-29T12:14:27.929Z,99577.00
2022-12-29T12:17:29.009Z,99586.91
2022-12-29T12:20:14.058Z,99568.31
2022-12-29T12:22:52.822Z,99557.78
2022-12-29T12:25:27.761Z,99571.53
2022-12-29T12:28:06.770Z,99569.56
2022-12-29T12:30:43.199Z,99547.47
2022-12-29T12:33:28.696Z,99568.09
2022-12-29T12:36:12.210Z,99565.88
2022-12-29T12:39:10.605Z,99576.47
2022-12-29T12:42:02.075Z,99545.22
2022-12-29T12:44:42.406Z,99561.34
2022-12-29T12:47:27.896Z,99580.75
2022-12-29T12:50:19.913Z,99562.50
2022-12-29T12:53:04.822Z,99581.22
2022-12-29T12:55:48.518Z,99592.94
2022-12-29T12:58:36.885Z,99570.56
2022-12-29T13:01:35.898Z,99582.44
2022-12-29T13:04:24.617Z,99588.13
2022-12-29T13:07:05.360Z,99575.06
2022-12-29T13:09:57.261Z,99583.00
2022-12-29T13:12:37.486Z,99586.06
2022-12-29T13:15:30.742Z,99564.69
2022-12-29T13:18:12.522Z,99568.00
2022-12-29T13:20:51.131Z,99558.75
2022-12-29T13:23:55.232Z,99594.00
2022-12-29T13:26:36.918Z,99589.38
2022-12-29T13:29:16.567Z,99602.50
2022-12-29T13:32:06.822Z,99585.25
2022-12-29T13:34:43.307Z,99589.28
2022-12-29T13:37:15.225Z,99606.00
2022-12-29T13:39:50.730Z,99602.63
2022-12-29T13:42:20.593Z,99585.16
2022-12-29T13:45:09.289Z,99586.69
2022-12-29T13:47:43.400Z,99601.88
2022-12-29T13:50:34.735Z,99609.78
2022-12-29T13:53:08.002Z,99588.06
2022-12-29T13:55:49.825Z,99572.28
2022-12-29T13:58:27.053Z,99585.53
2022-12-29T14:01:01.109Z,99597.75
2022-12-29T14:03:37.212Z,99568.56
2022-12-29T14:06:20.642Z,99605.59
2022-12-29T14:08:49.672Z,99597.03
2022-12-29T14:11:18.977Z,99629.06
2022-12-29T14:13:48.463Z,99601.88
2022-12-29T14:16:29.628Z,99590.59
2022-12-29T14:19:05.974Z,99621.81
2022-12-29T14:21:33.914Z,99605.94
2022-12-29T14:24:28.513Z,99601.50
2022-12-29T14:26:55.503Z,99608.81
2022-12-29T14:29:25.322Z,99622.00
2022-12-29T14:31:54.739Z,99623.97
2022-12-29T14:34:21.648Z,99608.38
2022-12-29T14:37:03.118Z,99613.66
2022-12-29T14:39:43.357Z,99610.47
2022-12-29T14:42:10.499Z,99614.91
2022-12-29T14:44:50.795Z,99612.00
2022-12-29T14:47:28.364Z,99618.38
2022-12-29T14:49:55.869Z,99609.63
2022-12-29T14:52:26.338Z,99606.41
2022-12-29T14:54:55.673Z,99594.25
2022-12-29T14:57:44.051Z,99604.28
2022-12-29T15:00:26.738Z,99618.03
2022-12-29T15:03:25.251Z,99602.13
2022-12-29T15:06:10.905Z,99594.84
2022-12-29T15:08:50.766Z,99591.00
2022-12-29T15:11:24.491Z,99599.91
2022-12-29T15:13:52.168Z,99595.66
2022-12-29T15:16:39.592Z,99593.41
2022-12-29T15:19:22.792Z,99596.47
2022-12-29T15:21:50.125Z,99591.06
2022-12-29T15:24:17.708Z,99595.19
2022-12-29T15:26:54.537Z,99580.94
2022-12-29T15:29:36.994Z,99607.34
2022-12-29T15:32:17.914Z,99559.91
2022-12-29T15:34:47.171Z,99583.94
2022-12-29T15:37:23.982Z,99578.22
2022-12-29T15:39:52.325Z,99566.03
2022-12-29T15:42:40.123Z,99556.13
2022-12-29T15:45:12.037Z,99605.84
2022-12-29T15:47:41.237Z,99582.13
2022-12-29T15:50:30.161Z,99597.59
2022-12-29T15:52:58.528Z,99583.38
2022-12-29T15:55:36.455Z,99572.69
2022-12-29T15:58:20.744Z,99580.16
2022-12-29T16:00:51.358Z,99589.91
2022-12-29T16:03:18.574Z,99575.72
2022-12-29T16:05:57.837Z,99582.59
2022-12-29T16:08:33.012Z,99584.78
2022-12-29T16:11:03.264Z,99557.88
2022-12-29T16:13:40.079Z,99589.69
2022-12-29T16:16:19.243Z,99579.13
2022-12-29T16:18:49.382Z,99568.06
2022-12-29T16:21:34.241Z,99572.22
2022-12-29T16:24:08.099Z,99563.03
2022-12-29T16:26:35.376Z,99562.00
2022-12-29T16:29:07.994Z,99542.13
2022-12-29T16:31:56.022Z,99559.34
2022-12-29T16:34:31.664Z,99573.19
2022-12-29T16:37:23.434Z,99556.63
2022-12-29T16:39:51.514Z,99556.22
2022-12-29T16:42:47.230Z,99564.47
2022-12-29T16:45:21.298Z,99563.81
2022-12-29T16:48:07.191Z,99571.59
2022-12-29T16:50:38.835Z,99568.59
2022-12-29T16:53:20.675Z,99573.91
2022-12-29T16:55:54.306Z,99556.22
2022-12-29T16:58:27.269Z,99563.59
2022-12-29T17:00:58.253Z,99523.06
2022-12-29T17:03:51.762Z,99548.66
2022-12-29T17:06:23.340Z,99562.63
2022-12-29T17:08:51.677Z,99562.97
2022-12-29T17:11:32.032Z,99560.00
2022-12-29T17:14:00.055Z,99544.31
2022-12-29T17:16:27.431Z,99542.34
2022-12-29T17:18:55.580Z,99553.75
2022-12-29T17:21:23.058Z,99542.75
2022-12-29T17:23:51.457Z,99542.34
2022-12-29T17:26:18.542Z,99544.94
2022-12-29T17:28:47.696Z,99529.91
2022-12-29T17:31:24.034Z,99518.34
2022-12-29T17:33:52.209Z,99544.31
2022-12-29T17:36:19.529Z,99517.69
2022-12-29T17:38:48.714Z,99535.47
2022-12-29T17:41:16.038Z,99544.34
2022-12-29T17:43:43.118Z,99545.78
2022-12-29T17:46:10.122Z,99537.19
2022-12-29T17:48:37.125Z,99530.69
2022-12-29T17:51:05.490Z,99518.66
2022-12-29T17:53:35.362Z,99523.09
2022-12-29T17:56:02.530Z,99504.25
2022-12-29T17:58:30.683Z,99493.84
2022-12-29T18:01:00.092Z,99530.22
2022-12-29T18:03:30.743Z,99538.78
2022-12-29T18:05:58.548Z,99491.03
2022-12-29T18:08:25.600Z,99513.38
2022-12-29T18:10:54.916Z,99521.91
2022-12-29T18:13:39.300Z,99528.72
2022-12-29T18:16:13.225Z,99512.69
2022-12-29T18:18:58.401Z,99509.88
2022-12-29T18:21:25.661Z,99517.84
2022-12-29T18:23:52.805Z,99530.59
2022-12-29T18:26:31.299Z,99516.53
2022-12-29T18:28:59.881Z,99519.38
2022-12-29T18:31:32.931Z,99526.88
2022-12-29T18:34:02.663Z,99515.84
2022-12-29T18:36:31.449Z,99517.06
2022-12-29T18:38:58.981Z,99495.00
2022-12-29T18:41:28.610Z,99503.53
2022-12-29T18:43:57.082Z,99513.94
2022-12-29T18:46:24.531Z,99507.38
2022-12-29T18:48:52.926Z,99525.94
2022-12-29T18:51:24.040Z,99548.53
2022-12-29T18:53:52.587Z,99504.34
2022-12-29T18:56:20.469Z,99488.78
2022-12-29T18:58:49.651Z,99495.59
2022-12-29T19:01:26.400Z,99494.00
2022-12-29T19:03:54.042Z,99479.41
2022-12-29T19:06:22.384Z,99526.44
2022-12-29T19:08:54.394Z,99496.06
2022-12-29T19:11:25.807Z,99487.69
2022-12-29T19:13:53.608Z,99474.28
2022-12-29T19:16:22.684Z,99488.84
2022-12-29T19:19:08.446Z,99488.63
2022-12-29T19:21:38.687Z,99488.63
2022-12-29T19:24:06.756Z,99473.31
2022-12-29T19:26:37.156Z,99505.72
2022-12-29T19:29:06.889Z,99478.22
2022-12-29T19:31:34.854Z,99472.16
2022-12-29T19:34:03.251Z,99467.63
2022-12-29T19:36:30.913Z,99478.03
2022-12-29T19:38:58.584Z,99486.91
2022-12-29T19:41:25.841Z,99485.25
2022-12-29T19:43:53.326Z,99483.94
2022-12-29T19:46:21.193Z,99493.28
2022-12-29T19:48:48.618Z,99477.34
2022-12-29T19:51:16.790Z,99486.13
2022-12-29T19:53:44.868Z,99495.00
2022-12-29T19:56:13.905Z,99472.03
2022-12-29T19:58:46.683Z,99478.25
2022-12-29T20:01:20.646Z,99469.44
2022-12-29T20:03:49.440Z,99491.28
2022-12-29T20:06:17.564Z,99476.94
2022-12-29T20:08:45.063Z,99483.84
2022-12-29T20:11:17.178Z,99477.97
2022-12-29T20:13:44.674Z,99462.66
2022-12-29T20:16:14.687Z,99478.44
2022-12-29T20:18:45.005Z,99493.41
2022-12-29T20:21:17.996Z,99475.16
2022-12-29T20:23:45.508Z,99492.69
2022-12-29T20:26:26.935Z,99483.22
2022-12-29T20:28:55.256Z,99475.38
2022-12-29T20:31:28.940Z,99453.25
2022-12-29T20:33:56.651Z,99473.75
2022-12-29T20:36:29.373Z,99474.91
2022-12-29T20:38:58.411Z,99473.16
2022-12-29T20:41:25.990Z,99473.94
2022-12-29T20:43:53.647Z,99475.72
2022-12-29T20:46:23.230Z,99477.47
2022-12-29T20:48:52.803Z,99467.47
2022-12-29T20:51:21.080Z,99456.53
2022-12-29T20:53:48.368Z,99477.97
2022-12-29T20:56:17.873Z,99441.97
2022-12-29T20:59:25.216Z,99461.00
2022-12-29T21:01:32.568Z,99452.75
2022-12-29T21:03:59.738Z,99464.81
2022-12-29T21:06:26.819Z,99463.06
2022-12-29T21:08:53.817Z,99458.84
2022-12-29T21:11:21.469Z,99436.50
2022-12-29T21:13:48.955Z,99441.41
2022-12-29T21:16:16.377Z,99454.66
2022-12-29T21:18:43.333Z,99456.78
2022-12-29T21:21:17.570Z,99451.63
2022-12-29T21:23:44.596Z,99470.47
2022-12-29T21:26:14.838Z,99423.56
2022-12-29T21:28:42.498Z,99452.41
2022-12-29T21:31:26.478Z,99424.78
2022-12-29T21:33:54.402Z,99440.16
2022-12-29T21:36:21.862Z,99435.63
2022-12-29T21:38:48.819Z,99436.06
2022-12-29T21:41:16.742Z,99445.69
2022-12-29T21:43:45.949Z,99432.91
2022-12-29T21:46:13.041Z,99438.75
2022-12-29T21:48:40.197Z,99393.06
2022-12-29T21:51:11.779Z,99412.25
2022-12-29T21:53:41.507Z,99411.13
2022-12-29T21:56:17.000Z,99444.06
2022-12-29T21:58:49.435Z,99409.09
2022-12-29T22:01:18.199Z,99419.16
2022-12-29T22:03:45.105Z,99417.75
2022-12-29T22:06:12.164Z,99429.00
2022-12-29T22:08:40.007Z,99437.03
2022-12-29T22:11:08.923Z,99428.25
2022-12-29T22:13:37.763Z,99393.84
2022-12-29T22:16:11.114Z,99430.22
2022-12-29T22:18:38.739Z,99402.38
2022-12-29T22:21:08.498Z,99434.97
2022-12-29T22:23:37.011Z,99412.78
2022-12-29T22:26:05.393Z,99418.28
2022-12-29T22:28:35.093Z,99438.63
2022-12-29T22:31:02.041Z,99407.16
2022-12-29T22:33:28.956Z,99406.41
2022-12-29T22:35:55.780Z,99414.59
2022-12-29T22:38:22.678Z,99418.63
2022-12-29T22:40:49.581Z,99400.31
2022-12-29T22:43:16.452Z,99412.88
2022-12-29T22:45:43.354Z,99399.03
2022-12-29T22:48:10.473Z,99400.22
2022-12-29T22:50:39.587Z,99426.50
2022-12-29T22:53:06.422Z,99404.53
2022-12-29T22:55:33.293Z,99397.28
2022-12-29T22:58:02.370Z,99416.13
2022-12-29T23:00:29.317Z,99411.25
2022-12-29T23:02:56.555Z,99425.75
2022-12-29T23:05:23.725Z,99421.75
2022-12-29T23:07:50.631Z,99420.56
2022-12-29T23:10:17.506Z,99411.91
2022-12-29T23:12:44.439Z,99414.50
2022-12-29T23:15:11.599Z,99413.53
2022-12-29T23:17:38.482Z,99419.59
2022-12-29T23:20:07.299Z,99425.09
2022-12-29T23:22:34.166Z,99431.50
2022-12-29T23:25:01.031Z,99415.91
2022-12-29T23:27:27.847Z,99408.44
2022-12-29T23:29:54.752Z,99426.50
2022-12-29T23:32:21.818Z,99408.34
2022-12-29T23:34:48.675Z,99412.56
2022-12-29T23:37:15.557Z,99412.53
2022-12-29T23:39:42.367Z,99444.13
2022-12-29T23:42:09.188Z,99390.56
2022-12-29T23:44:36.184Z,99407.81
2022-12-29T23:47:03.071Z,99401.94
2022-12-29T23:49:29.890Z,99379.97
2022-12-29T23:51:56.753Z,99389.28
2022-12-29T23:54:23.570Z,99383.13
2022-12-29T23:57:09.122Z,99388.22
2022-12-29T23:59:36.085Z,99367.84
